Time;durP1;ratioP1;P1;durP2;ratioP2;P2;SDS_P1;SDS_P2;PMS_P1;PMS_P2;Temp;Humidity;BMP_temperature;BMP_pressure;BME280_temperature;BME280_humidity;BME280_pressure;Samples;Min_cycle;Max_cycle;Signal;HPM_P1;HPM_P2
2023/04/20 00:01:47;;;;;;;50.00;45.50;;;;;;;6.41;100.00;97998.36;106710;1276;22545;-79
2023/04/20 00:04:15;;;;;;;54.30;49.10;;;;;;;6.44;100.00;97999.74;106722;1276;22658;-79
2023/04/20 00:06:44;;;;;;;45.50;41.50;;;;;;;6.46;100.00;98002.57;106796;1276;22541;-79
2023/04/20 00:09:14;;;;;;;48.60;44.20;;;;;;;6.47;100.00;98002.48;106717;1272;24145;-80
2023/04/20 00:11:42;;;;;;;49.90;45.20;;;;;;;6.46;100.00;98002.90;106748;1276;22536;-80
2023/04/20 00:14:10;;;;;;;45.80;41.60;;;;;;;6.45;100.00;97998.67;106815;1276;25632;-82
2023/04/20 00:16:38;;;;;;;46.90;42.60;;;;;;;6.47;100.00;97995.34;106569;1276;25316;-80
2023/04/20 00:19:06;;;;;;;45.50;40.90;;;;;;;6.46;100.00;97994.48;107002;1276;22744;-79
2023/04/20 00:21:35;;;;;;;46.60;42.20;;;;;;;6.47;100.00;97995.94;106863;1276;22664;-80
2023/04/20 00:24:03;;;;;;;44.40;40.50;;;;;;;6.51;100.00;97993.41;107002;1276;23900;-79
2023/04/20 00:26:31;;;;;;;45.80;41.20;;;;;;;6.51;100.00;97987.41;107233;1276;23774;-79
2023/04/20 00:28:59;;;;;;;43.00;38.80;;;;;;;6.56;100.00;97993.20;106655;1276;24630;-84
2023/04/20 00:31:27;;;;;;;43.70;39.70;;;;;;;6.57;100.00;97993.58;106867;1276;24245;-80
2023/04/20 00:33:55;;;;;;;46.40;42.00;;;;;;;6.54;100.00;97994.86;106854;1276;25301;-81
2023/04/20 00:36:23;;;;;;;44.40;40.20;;;;;;;6.55;100.00;97992.17;106560;1276;22800;-81
2023/04/20 00:38:51;;;;;;;43.60;39.70;;;;;;;6.58;100.00;97994.41;106739;1276;22528;-81
2023/04/20 00:41:21;;;;;;;44.30;40.00;;;;;;;6.61;100.00;97993.45;106673;1254;25487;-82
2023/04/20 00:43:53;;;;;;;43.30;39.40;;;;;;;6.65;100.00;97993.23;106743;1276;23917;-80
2023/04/20 00:46:21;;;;;;;45.30;41.30;;;;;;;6.70;100.00;97992.42;106722;1276;23331;-80
2023/04/20 00:48:53;;;;;;;45.30;41.20;;;;;;;6.76;100.00;97990.59;106611;1276;24403;-79
2023/04/20 00:51:21;;;;;;;45.60;40.90;;;;;;;6.82;100.00;97995.98;106804;1276;25291;-79
2023/04/20 00:53:49;;;;;;;46.80;42.20;;;;;;;6.86;100.00;97995.48;106822;1276;23214;-79
2023/04/20 00:56:18;;;;;;;43.80;39.80;;;;;;;6.87;100.00;97995.75;106632;1276;22531;-80
2023/04/20 00:58:46;;;;;;;43.00;39.30;;;;;;;6.86;100.00;97994.80;106773;1272;24306;-79
2023/04/20 01:01:16;;;;;;;39.70;36.00;;;;;;;6.85;100.00;97993.35;106807;1261;22655;-79
2023/04/20 01:03:46;;;;;;;43.00;38.90;;;;;;;6.83;100.00;97990.09;106723;1276;25367;-78
2023/04/20 01:06:14;;;;;;;42.10;38.30;;;;;;;6.81;100.00;97991.48;106719;1276;22541;-79
2023/04/20 01:08:50;;;;;;;40.60;37.10;;;;;;;6.85;100.00;97991.70;106669;1276;25318;-79
2023/04/20 01:11:18;;;;;;;42.10;38.40;;;;;;;6.87;100.00;97992.33;106676;1276;22897;-79
2023/04/20 01:13:46;;;;;;;45.20;40.70;;;;;;;6.91;100.00;97990.44;106658;1276;25332;-79
2023/04/20 01:16:14;;;;;;;45.00;40.90;;;;;;;6.90;100.00;97990.55;106682;1276;22645;-78
2023/04/20 01:18:47;;;;;;;46.30;42.20;;;;;;;6.92;100.00;97985.62;106582;1276;22531;-78
2023/04/20 01:21:22;;;;;;;46.20;41.70;;;;;;;6.91;100.00;97988.04;106673;1277;22520;-80
2023/04/20 01:23:52;;;;;;;46.90;42.80;;;;;;;6.94;100.00;97986.73;106798;1276;22518;-80
2023/04/20 01:26:22;;;;;;;44.30;40.30;;;;;;;6.96;100.00;97990.69;106624;1276;25313;-77
2023/04/20 01:28:51;;;;;;;51.30;46.80;;;;;;;6.99;100.00;97987.36;106667;1276;22600;-79
2023/04/20 01:31:19;;;;;;;45.60;41.30;;;;;;;7.01;100.00;97988.88;106566;1276;24843;-79
2023/04/20 01:33:48;;;;;;;44.70;40.80;;;;;;;6.99;100.00;97994.48;106632;1276;22534;-79
2023/04/20 01:36:16;;;;;;;45.50;41.40;;;;;;;6.99;100.00;97997.44;106594;1276;22782;-79
2023/04/20 01:38:44;;;;;;;45.30;41.40;;;;;;;6.95;100.00;97996.27;106716;1276;24372;-79
2023/04/20 01:41:12;;;;;;;45.10;41.00;;;;;;;6.92;100.00;97994.68;106648;1276;25451;-79
2023/04/20 01:43:40;;;;;;;40.70;37.10;;;;;;;6.96;100.00;97990.05;106716;1276;24128;-79
2023/04/20 01:46:08;;;;;;;53.80;48.80;;;;;;;6.97;100.00;97986.98;106677;1276;24275;-80
2023/04/20 01:48:36;;;;;;;38.30;34.70;;;;;;;6.97;100.00;97986.84;106665;1277;22575;-80
2023/04/20 01:51:04;;;;;;;40.60;37.00;;;;;;;6.97;100.00;97986.78;106739;1276;24588;-79
2023/04/20 01:53:33;;;;;;;39.00;35.60;;;;;;;6.96;100.00;97984.21;107067;1276;25396;-79
2023/04/20 01:56:00;;;;;;;44.40;40.20;;;;;;;6.91;100.00;97981.96;107389;1276;22527;-80
2023/04/20 01:58:28;;;;;;;45.40;41.30;;;;;;;6.85;100.00;97981.73;106902;1276;22580;-80
2023/04/20 02:00:57;;;;;;;39.10;35.50;;;;;;;6.76;100.00;97981.16;106807;1276;24207;-80
2023/04/20 02:03:27;;;;;;;38.10;34.70;;;;;;;6.72;100.00;97981.55;106619;1276;22632;-79
2023/04/20 02:05:55;;;;;;;39.60;36.20;;;;;;;6.69;100.00;97984.06;106893;1276;22648;-79
2023/04/20 02:08:26;;;;;;;38.50;35.30;;;;;;;6.69;100.00;97981.39;106759;1276;22535;-79
2023/04/20 02:10:54;;;;;;;39.30;36.00;;;;;;;6.67;100.00;97977.92;106811;1276;22534;-80
2023/04/20 02:13:22;;;;;;;37.20;33.80;;;;;;;6.65;100.00;97977.86;106761;1277;22541;-80
2023/04/20 02:15:50;;;;;;;41.70;38.00;;;;;;;6.57;100.00;97978.56;106656;1276;22535;-79
2023/04/20 02:18:18;;;;;;;41.90;38.40;;;;;;;6.47;100.00;97981.91;106663;1276;25329;-79
2023/04/20 02:20:46;;;;;;;36.10;32.90;;;;;;;6.43;100.00;97981.64;106715;1276;22744;-78
2023/04/20 02:23:14;;;;;;;37.60;33.40;;;;;;;6.40;100.00;97987.48;106594;1277;22758;-79
2023/04/20 02:25:42;;;;;;;40.40;36.70;;;;;;;6.40;100.00;97988.66;106768;1276;25329;-78
2023/04/20 02:28:11;;;;;;;160.90;123.70;;;;;;;6.41;100.00;97989.19;106703;1276;24368;-79
2023/04/20 02:30:39;;;;;;;96.40;86.80;;;;;;;6.42;100.00;97985.07;106616;1276;25320;-79
2023/04/20 02:33:07;;;;;;;46.30;42.20;;;;;;;6.42;100.00;97985.08;106648;1276;22780;-79
2023/04/20 02:35:35;;;;;;;38.90;35.70;;;;;;;6.38;100.00;97982.73;106673;1276;22606;-79
2023/04/20 02:38:03;;;;;;;39.00;35.70;;;;;;;6.32;100.00;97989.84;106777;1276;24194;-78
2023/04/20 02:40:31;;;;;;;40.60;36.70;;;;;;;6.28;100.00;97989.36;106642;1276;22805;-78
2023/04/20 02:42:59;;;;;;;39.10;35.60;;;;;;;6.26;100.00;97988.30;106725;1276;24228;-78
2023/04/20 02:45:29;;;;;;;44.60;40.70;;;;;;;6.25;100.00;97989.10;106688;1276;22643;-78
2023/04/20 02:47:58;;;;;;;42.80;38.50;;;;;;;6.26;100.00;97988.78;106814;1276;22635;-79
2023/04/20 02:50:27;;;;;;;50.10;45.90;;;;;;;6.27;100.00;97986.64;106804;1276;24278;-78
2023/04/20 02:53:01;;;;;;;47.50;43.40;;;;;;;6.31;100.00;97990.16;106807;1276;24364;-79
2023/04/20 02:55:31;;;;;;;43.80;40.10;;;;;;;6.29;100.00;97984.11;106820;1276;22654;-78
2023/04/20 02:58:02;;;;;;;45.10;41.10;;;;;;;6.30;100.00;97988.88;106824;1276;22636;-78
2023/04/20 03:00:50;;;;;;;42.00;38.30;;;;;;;6.30;100.00;97989.64;106752;1276;25470;-78
2023/04/20 03:03:19;;;;;;;41.70;38.00;;;;;;;6.31;100.00;97989.30;106814;1276;23184;-78
2023/04/20 03:05:48;;;;;;;42.90;39.10;;;;;;;6.32;100.00;97992.79;106728;1276;25640;-78
2023/04/20 03:08:16;;;;;;;39.00;33.80;;;;;;;6.34;100.00;97991.98;106621;1276;22634;-79
2023/04/20 03:10:45;;;;;;;38.60;35.10;;;;;;;6.37;100.00;97993.33;106658;1276;24206;-81
2023/04/20 03:13:17;;;;;;;40.90;37.30;;;;;;;6.40;100.00;97997.45;106777;1276;22598;-82
2023/04/20 03:15:58;;;;;;;49.40;45.00;;;;;;;6.44;100.00;98000.21;106665;1276;23144;-81
2023/04/20 03:18:31;;;;;;;43.60;39.70;;;;;;;6.42;100.00;98002.31;106773;1276;22692;-80
2023/04/20 03:20:59;;;;;;;42.90;38.90;;;;;;;6.39;100.00;98001.23;106683;1276;25617;-80
2023/04/20 03:23:29;;;;;;;41.20;37.30;;;;;;;6.37;100.00;97999.63;106858;1276;22537;-80
2023/04/20 03:25:57;;;;;;;40.20;36.50;;;;;;;6.40;100.00;98003.23;106752;1276;25492;-80
2023/04/20 03:28:54;;;;;;;39.10;35.30;;;;;;;6.43;100.00;98007.13;106746;1276;25403;-80
2023/04/20 03:31:25;;;;;;;40.60;36.90;;;;;;;6.46;100.00;98007.02;106864;1276;25255;-79
2023/04/20 03:33:54;;;;;;;69.10;62.90;;;;;;;6.46;100.00;98004.67;106757;1276;22541;-80
2023/04/20 03:36:23;;;;;;;50.10;45.70;;;;;;;6.46;100.00;98005.68;106833;1276;23026;-79
2023/04/20 03:38:51;;;;;;;56.60;51.50;;;;;;;6.46;100.00;98004.02;106825;1276;22543;-80
2023/04/20 03:41:21;;;;;;;44.00;40.00;;;;;;;6.48;100.00;98010.07;106825;1276;25339;-80
2023/04/20 03:43:49;;;;;;;47.80;43.30;;;;;;;6.51;100.00;98011.63;106676;1275;25500;-80
2023/04/20 03:46:17;;;;;;;45.40;41.40;;;;;;;6.54;100.00;98009.73;106686;1266;24382;-79
2023/04/20 03:48:47;;;;;;;45.40;41.40;;;;;;;6.58;100.00;98004.38;106571;1276;22535;-81
2023/04/20 03:51:15;;;;;;;44.40;40.40;;;;;;;6.62;100.00;98009.15;106705;1276;24278;-81
2023/04/20 03:53:43;;;;;;;47.40;43.30;;;;;;;6.62;100.00;98008.93;106699;1276;25330;-79
2023/04/20 03:56:11;;;;;;;52.80;48.10;;;;;;;6.60;100.00;98016.43;106719;1276;22520;-79
2023/04/20 03:58:40;;;;;;;45.70;41.30;;;;;;;6.60;100.00;98012.31;106774;1276;22775;-78
2023/04/20 04:01:17;;;;;;;43.50;39.50;;;;;;;6.57;100.00;98015.16;106696;1276;22532;-79
2023/04/20 04:03:48;;;;;;;43.10;38.80;;;;;;;6.51;100.00;98013.91;106713;1276;22752;-79
2023/04/20 04:06:17;;;;;;;45.20;40.80;;;;;;;6.51;100.00;98015.79;106763;1276;22630;-79
2023/04/20 04:08:45;;;;;;;41.90;38.00;;;;;;;6.51;100.00;98016.34;106554;1276;22528;-82
2023/04/20 04:11:13;;;;;;;43.60;39.60;;;;;;;6.49;100.00;98015.48;106741;1259;24555;-82
2023/04/20 04:13:41;;;;;;;43.20;39.20;;;;;;;6.48;100.00;98015.20;106647;1276;23894;-83
2023/04/20 04:16:10;;;;;;;42.00;38.20;;;;;;;6.44;100.00;98018.85;106739;1276;22673;-79
2023/04/20 04:18:44;;;;;;;45.90;41.60;;;;;;;6.45;100.00;98015.69;106604;1276;25393;-84
2023/04/20 04:21:12;;;;;;;46.30;42.00;;;;;;;6.51;100.00;98015.20;106591;1276;22528;-79
2023/04/20 04:23:44;;;;;;;45.90;41.80;;;;;;;6.53;100.00;98013.44;106760;1276;24381;-82
2023/04/20 04:26:20;;;;;;;44.20;40.20;;;;;;;6.52;100.00;98018.27;106555;1276;22534;-82
2023/04/20 04:28:48;;;;;;;44.00;40.00;;;;;;;6.48;100.00;98018.48;106761;1276;22635;-82
2023/04/20 04:31:18;;;;;;;40.50;36.90;;;;;;;6.45;100.00;98017.13;106704;1276;22630;-83
2023/04/20 04:33:47;;;;;;;41.50;37.80;;;;;;;6.47;100.00;98019.71;106750;1276;22518;-81
2023/04/20 04:36:25;;;;;;;42.90;38.90;;;;;;;6.49;100.00;98017.78;106764;1276;23165;-83
2023/04/20 04:38:55;;;;;;;38.60;35.20;;;;;;;6.45;100.00;98017.02;106677;1273;22539;-85
2023/04/20 04:41:24;;;;;;;44.10;40.10;;;;;;;6.41;100.00;98020.19;106576;1276;25355;-80
2023/04/20 04:43:53;;;;;;;41.50;37.60;;;;;;;6.40;100.00;98017.39;106793;1276;23150;-79
2023/04/20 04:46:26;;;;;;;42.00;38.10;;;;;;;6.37;100.00;98018.90;106818;1276;22582;-80
2023/04/20 04:48:59;;;;;;;41.40;37.70;;;;;;;6.32;100.00;98028.12;106843;1276;22790;-78
2023/04/20 04:51:28;;;;;;;44.40;40.30;;;;;;;6.32;100.00;98024.95;106565;1276;25378;-78
2023/04/20 04:53:56;;;;;;;41.10;37.30;;;;;;;6.33;100.00;98030.85;106534;1276;22545;-77
2023/04/20 04:56:24;;;;;;;42.20;38.20;;;;;;;6.37;100.00;98032.66;106794;1276;22586;-77
2023/04/20 04:58:52;;;;;;;42.30;38.50;;;;;;;6.44;100.00;98034.00;106715;1276;22549;-77
2023/04/20 05:01:20;;;;;;;42.60;38.60;;;;;;;6.45;100.00;98034.48;106616;1276;24471;-77
2023/04/20 05:03:48;;;;;;;41.90;38.10;;;;;;;6.43;100.00;98040.48;106479;1276;22943;-77
2023/04/20 05:06:17;;;;;;;41.30;37.50;;;;;;;6.38;100.00;98039.45;106630;1276;22525;-77
2023/04/20 05:08:45;;;;;;;43.50;39.40;;;;;;;6.38;100.00;98039.95;106695;1276;24194;-77
2023/04/20 05:11:13;;;;;;;41.50;37.70;;;;;;;6.41;100.00;98036.63;106642;1276;26638;-78
2023/04/20 05:13:41;;;;;;;43.50;39.30;;;;;;;6.46;100.00;98039.67;106689;1276;22534;-78
2023/04/20 05:16:10;;;;;;;45.90;41.40;;;;;;;6.48;100.00;98041.12;106801;1276;22539;-78
2023/04/20 05:18:38;;;;;;;41.10;37.30;;;;;;;6.54;100.00;98042.61;106851;1276;22523;-78
2023/04/20 05:21:06;;;;;;;40.90;37.20;;;;;;;6.61;100.00;98045.23;106705;1276;22648;-78
2023/04/20 05:23:34;;;;;;;42.10;38.30;;;;;;;6.64;100.00;98048.92;106790;1276;25245;-78
2023/04/20 05:26:02;;;;;;;42.20;38.00;;;;;;;6.71;100.00;98047.10;106747;1276;25397;-77
2023/04/20 05:28:31;;;;;;;42.60;38.60;;;;;;;6.79;100.00;98048.90;106790;1276;22807;-79
2023/04/20 05:31:00;;;;;;;43.30;39.00;;;;;;;6.88;100.00;98046.17;106773;1276;22587;-80
2023/04/20 05:33:28;;;;;;;59.20;53.80;;;;;;;6.97;100.00;98046.73;106818;1276;22548;-80
2023/04/20 05:35:56;;;;;;;41.00;37.00;;;;;;;7.07;100.00;98044.09;106772;1276;25809;-79
2023/04/20 05:38:24;;;;;;;42.50;38.40;;;;;;;7.15;100.00;98043.15;106749;1276;22569;-78
2023/04/20 05:40:52;;;;;;;41.50;37.60;;;;;;;7.26;100.00;98046.56;107041;1272;22527;-79
2023/04/20 05:43:20;;;;;;;43.20;39.00;;;;;;;7.30;100.00;98050.83;106701;1276;22620;-79
2023/04/20 05:45:48;;;;;;;43.80;39.10;;;;;;;7.35;100.00;98054.40;106726;1276;22654;-77
2023/04/20 05:48:16;;;;;;;45.90;41.20;;;;;;;7.42;100.00;98058.77;106283;1276;191364;-77
2023/04/20 05:50:44;;;;;;;46.60;41.80;;;;;;;7.51;100.00;98059.55;106619;1276;22636;-77
2023/04/20 05:53:12;;;;;;;46.10;41.30;;;;;;;7.61;100.00;98062.61;106575;1276;22796;-78
2023/04/20 05:55:40;;;;;;;43.10;38.70;;;;;;;7.75;100.00;98055.14;106765;1276;22603;-78
2023/04/20 05:58:08;;;;;;;85.30;77.60;;;;;;;7.94;100.00;98056.65;106835;1276;22598;-78
2023/04/20 06:00:36;;;;;;;42.70;38.70;;;;;;;8.10;100.00;98059.34;106883;1276;25289;-79
2023/04/20 06:03:04;;;;;;;41.70;37.60;;;;;;;8.19;100.00;98059.00;106804;1276;22573;-79
2023/04/20 06:05:33;;;;;;;41.80;37.70;;;;;;;8.26;100.00;98062.14;106762;1276;24380;-80
2023/04/20 06:08:01;;;;;;;40.20;36.20;;;;;;;8.33;100.00;98063.11;106569;1277;22785;-79
2023/04/20 06:10:31;;;;;;;37.90;34.20;;;;;;;8.41;100.00;98065.92;106768;1276;25334;-78
2023/04/20 06:12:59;;;;;;;39.10;35.30;;;;;;;8.47;100.00;98071.95;106843;1277;25381;-77
2023/04/20 06:15:27;;;;;;;38.20;34.50;;;;;;;8.54;100.00;98076.02;106405;1276;22947;-80
2023/04/20 06:17:55;;;;;;;37.80;34.10;;;;;;;8.50;100.00;98078.42;106732;1276;22617;-78
2023/04/20 06:20:23;;;;;;;37.10;33.60;;;;;;;8.45;100.00;98075.98;106423;1277;22697;-81
2023/04/20 06:22:51;;;;;;;36.20;32.70;;;;;;;8.39;100.00;98077.31;106782;1277;25527;-78
2023/04/20 06:25:19;;;;;;;37.40;33.70;;;;;;;8.43;100.00;98077.13;106719;1277;26690;-78
2023/04/20 06:27:47;;;;;;;37.40;32.00;;;;;;;8.57;100.00;98074.98;106769;1276;24351;-78
2023/04/20 06:30:18;;;;;;;32.40;28.70;;;;;;;8.73;100.00;98074.05;106519;1277;22637;-78
2023/04/20 06:32:46;;;;;;;31.30;28.30;;;;;;;8.90;100.00;98071.14;106782;1276;24361;-78
2023/04/20 06:35:14;;;;;;;28.80;26.20;;;;;;;9.03;100.00;98072.14;106846;1276;25449;-78
2023/04/20 06:37:41;;;;;;;35.50;31.90;;;;;;;9.03;100.00;98068.91;106817;1276;22505;-78
2023/04/20 06:40:10;;;;;;;33.30;30.30;;;;;;;9.03;100.00;98070.11;106846;1277;22517;-78
2023/04/20 06:42:41;;;;;;;32.40;29.40;;;;;;;9.06;100.00;98067.50;106791;1276;22659;-78
2023/04/20 06:45:09;;;;;;;30.20;27.30;;;;;;;9.12;100.00;98064.16;106790;1276;22642;-78
2023/04/20 06:47:37;;;;;;;28.00;25.40;;;;;;;9.19;100.00;98061.19;106775;1276;22551;-78
2023/04/20 06:50:08;;;;;;;30.40;27.50;;;;;;;9.34;100.00;98066.98;106745;1277;22580;-78
2023/04/20 06:52:38;;;;;;;31.80;28.80;;;;;;;9.49;100.00;98066.38;106758;1277;25339;-78
2023/04/20 06:55:07;;;;;;;33.00;29.80;;;;;;;9.65;100.00;98069.44;106901;1276;25405;-78
2023/04/20 06:57:37;;;;;;;31.00;28.30;;;;;;;9.77;100.00;98073.46;106551;1276;22940;-77
2023/04/20 07:00:07;;;;;;;32.90;29.90;;;;;;;9.90;100.00;98073.77;106912;1277;22526;-77
2023/04/20 07:02:43;;;;;;;31.30;28.10;;;;;;;10.02;100.00;98067.80;106905;1277;25512;-77
2023/04/20 07:05:11;;;;;;;30.00;27.00;;;;;;;10.13;100.00;98064.41;106892;1276;24345;-77
2023/04/20 07:07:40;;;;;;;29.80;26.70;;;;;;;10.25;99.94;98065.27;106841;1276;24500;-77
2023/04/20 07:10:11;;;;;;;29.20;26.50;;;;;;;10.30;96.71;98067.34;106863;1277;22554;-77
2023/04/20 07:12:40;;;;;;;32.20;29.00;;;;;;;10.29;97.40;98069.13;106567;1276;22555;-78
2023/04/20 07:15:11;;;;;;;29.20;26.40;;;;;;;10.34;95.89;98073.78;106822;1276;25376;-78
2023/04/20 07:17:39;;;;;;;28.50;25.80;;;;;;;10.32;92.46;98072.47;106837;1276;22798;-78
2023/04/20 07:20:08;;;;;;;30.30;26.80;;;;;;;10.26;92.20;98080.02;106832;1276;23622;-78
2023/04/20 07:22:37;;;;;;;28.10;24.50;;;;;;;10.31;93.75;98077.83;106825;1276;24371;-78
2023/04/20 07:25:07;;;;;;;29.90;27.10;;;;;;;10.45;95.32;98077.27;106836;1276;24369;-78
2023/04/20 07:27:40;;;;;;;29.40;26.60;;;;;;;10.66;95.69;98079.42;107036;1276;24134;-78
2023/04/20 07:30:09;;;;;;;28.00;25.30;;;;;;;10.82;95.14;98079.16;106995;1276;22782;-78
2023/04/20 07:32:39;;;;;;;27.40;24.80;;;;;;;11.02;96.14;98078.70;106911;1276;22647;-80
2023/04/20 07:35:08;;;;;;;25.30;22.70;;;;;;;11.24;96.53;98084.45;106872;1276;22648;-83
2023/04/20 07:37:36;;;;;;;25.10;22.60;;;;;;;11.38;94.42;98085.48;106892;1267;22601;-80
2023/04/20 07:40:05;;;;;;;25.80;23.20;;;;;;;11.37;89.68;98087.61;107059;1276;22522;-78
2023/04/20 07:42:35;;;;;;;26.90;24.20;;;;;;;11.25;91.19;98086.34;107021;1274;24449;-80
2023/04/20 07:45:05;;;;;;;26.20;23.50;;;;;;;11.29;92.46;98079.62;107494;1262;22650;-79
2023/04/20 07:47:34;;;;;;;25.30;22.90;;;;;;;11.28;88.14;98083.30;107026;1273;25493;-80
2023/04/20 07:50:03;;;;;;;25.00;22.40;;;;;;;11.22;87.80;98084.81;106931;1275;22850;-79
2023/04/20 07:52:32;;;;;;;24.50;22.00;;;;;;;11.22;88.68;98083.69;106736;1276;23916;-79
2023/04/20 07:55:00;;;;;;;29.00;26.60;;;;;;;11.29;89.61;98087.59;106884;1276;22568;-81
2023/04/20 07:57:28;;;;;;;29.80;26.80;;;;;;;11.36;90.03;98085.91;106839;1276;24066;-79
2023/04/20 07:59:56;;;;;;;22.90;20.70;;;;;;;11.49;91.11;98082.14;107127;1269;24258;-79
2023/04/20 08:02:25;;;;;;;23.50;21.30;;;;;;;11.57;88.87;98084.84;107092;1269;26512;-78
2023/04/20 08:04:53;;;;;;;23.30;20.80;;;;;;;11.65;89.81;98082.70;107048;1276;22557;-79
2023/04/20 08:07:22;;;;;;;19.60;17.70;;;;;;;11.73;87.74;98082.31;107183;1275;25262;-80
2023/04/20 08:09:50;;;;;;;18.00;16.20;;;;;;;11.81;88.24;98083.52;107291;1275;22623;-80
2023/04/20 08:12:18;;;;;;;20.20;17.80;;;;;;;11.98;89.50;98085.77;107327;1275;24203;-78
2023/04/20 08:14:46;;;;;;;20.50;17.50;;;;;;;12.17;89.64;98080.77;107288;1275;22485;-77
2023/04/20 08:17:14;;;;;;;20.60;18.40;;;;;;;12.34;89.38;98078.21;106885;1276;22630;-79
2023/04/20 08:19:43;;;;;;;19.70;17.70;;;;;;;12.46;88.05;98080.19;106920;1276;25306;-79
2023/04/20 08:22:13;;;;;;;15.90;14.30;;;;;;;12.49;85.39;98084.85;106896;1276;22542;-80
2023/04/20 08:24:41;;;;;;;16.00;14.00;;;;;;;12.53;86.92;98081.61;107132;1276;24407;-79
2023/04/20 08:27:09;;;;;;;18.10;16.30;;;;;;;12.66;86.04;98082.71;107119;1276;22524;-80
2023/04/20 08:29:38;;;;;;;16.30;14.70;;;;;;;12.73;83.88;98091.36;107124;1276;22647;-79
2023/04/20 08:32:11;;;;;;;12.10;11.00;;;;;;;12.82;83.23;98090.88;107150;1276;25312;-79
2023/04/20 08:34:40;;;;;;;14.30;11.60;;;;;;;12.92;84.03;98090.02;107141;1276;22639;-78
2023/04/20 08:37:08;;;;;;;11.70;10.50;;;;;;;13.03;82.90;98092.94;107137;1276;25489;-80
2023/04/20 08:39:37;;;;;;;14.40;13.10;;;;;;;13.12;84.18;98091.27;106910;1276;22741;-79
2023/04/20 08:42:05;;;;;;;18.40;16.60;;;;;;;13.22;82.99;98093.68;107089;1276;22691;-78
2023/04/20 08:44:33;;;;;;;15.60;14.00;;;;;;;13.20;81.04;98095.20;106924;1276;25472;-77
2023/04/20 08:47:02;;;;;;;13.40;12.00;;;;;;;13.12;81.58;98091.84;106819;1276;22617;-79
2023/04/20 08:49:31;;;;;;;15.30;13.80;;;;;;;13.14;82.43;98090.48;106808;1276;25278;-78
2023/04/20 08:51:59;;;;;;;12.20;11.00;;;;;;;13.20;82.45;98086.75;106864;1276;22729;-77
2023/04/20 08:54:27;;;;;;;14.50;11.60;;;;;;;13.25;81.74;98089.19;106843;1273;24405;-78
2023/04/20 08:56:55;;;;;;;13.30;10.40;;;;;;;13.32;81.62;98088.78;106781;1268;24469;-78
2023/04/20 08:59:24;;;;;;;12.30;11.00;;;;;;;13.41;80.43;98086.50;106785;1276;22633;-78
2023/04/20 09:01:51;;;;;;;15.60;11.80;;;;;;;13.49;80.07;98091.16;106858;1276;23183;-78
2023/04/20 09:04:25;;;;;;;12.10;10.40;;;;;;;13.60;80.69;98088.98;106800;1276;22645;-78
2023/04/20 09:06:55;;;;;;;15.10;10.90;;;;;;;13.81;80.42;98088.64;106786;1277;22642;-78
2023/04/20 09:09:26;;;;;;;11.90;10.70;;;;;;;13.93;80.63;98089.59;106743;1277;24175;-78
2023/04/20 09:12:06;;;;;;;11.00;9.50;;;;;;;14.12;81.14;98089.48;106760;1276;22891;-78
2023/04/20 09:14:42;;;;;;;14.10;11.00;;;;;;;14.34;79.49;98095.60;106964;1276;24137;-78
2023/04/20 09:17:13;;;;;;;12.40;11.10;;;;;;;14.42;76.77;98096.63;107060;1276;22555;-78
2023/04/20 09:19:51;;;;;;;11.60;10.20;;;;;;;14.47;77.54;98096.09;106996;1276;22521;-78
2023/04/20 09:22:30;;;;;;;10.20;9.10;;;;;;;14.52;78.48;98094.58;107069;1276;22519;-79
2023/04/20 09:24:58;;;;;;;10.30;8.70;;;;;;;14.53;76.06;98093.52;106856;1276;24307;-79
2023/04/20 09:27:26;;;;;;;13.00;9.80;;;;;;;14.51;77.77;98094.18;106837;1276;22559;-78
2023/04/20 09:30:05;;;;;;;15.20;8.50;;;;;;;14.55;77.43;98089.99;107126;1276;22523;-78
2023/04/20 09:32:34;;;;;;;11.20;8.00;;;;;;;14.61;77.61;98089.98;106803;1253;25617;-78
2023/04/20 09:35:02;;;;;;;14.80;8.20;;;;;;;14.67;76.08;98092.56;106887;1275;22555;-78
2023/04/20 09:37:30;;;;;;;8.60;7.70;;;;;;;14.65;75.50;98092.58;106788;1276;22533;-78
2023/04/20 09:39:59;;;;;;;11.00;8.30;;;;;;;14.67;73.58;98093.83;106795;1276;25314;-78
2023/04/20 09:42:27;;;;;;;11.90;9.00;;;;;;;14.60;73.12;98097.45;106845;1276;25313;-78
2023/04/20 09:44:56;;;;;;;15.40;9.20;;;;;;;14.50;72.98;98100.28;107203;1269;25495;-78
2023/04/20 09:47:26;;;;;;;11.00;8.20;;;;;;;14.46;73.94;98098.70;106586;1276;22755;-77
2023/04/20 09:49:54;;;;;;;12.90;8.00;;;;;;;14.42;73.47;98095.32;107023;1276;24566;-78
2023/04/20 09:52:26;;;;;;;10.90;8.20;;;;;;;14.34;72.92;98099.23;107216;1276;25322;-78
2023/04/20 09:54:55;;;;;;;9.40;7.80;;;;;;;14.24;72.10;98098.54;107102;1276;25400;-77
2023/04/20 09:57:24;;;;;;;13.80;9.30;;;;;;;14.11;72.82;98097.46;107075;1276;22992;-78
2023/04/20 09:59:53;;;;;;;10.50;9.40;;;;;;;13.99;71.95;98102.25;106764;1276;22788;-79
2023/04/20 10:02:21;;;;;;;11.80;9.10;;;;;;;13.89;72.62;98101.58;106603;1276;25471;-80
2023/04/20 10:04:56;;;;;;;11.60;9.30;;;;;;;13.81;72.10;98101.83;107073;1276;22532;-77
2023/04/20 10:07:30;;;;;;;11.20;9.10;;;;;;;13.74;71.97;98101.48;106614;1258;22517;-77
2023/04/20 10:10:16;;;;;;;12.30;10.60;;;;;;;13.77;72.53;98099.20;106845;1276;22633;-77
2023/04/20 10:13:00;;;;;;;12.50;10.40;;;;;;;13.90;71.72;98092.86;106771;1276;22551;-79
2023/04/20 10:15:39;;;;;;;12.70;11.40;;;;;;;14.01;71.82;98094.33;106815;1260;25099;-79
2023/04/20 10:18:18;;;;;;;11.50;10.30;;;;;;;14.07;71.23;98091.56;106858;1255;22676;-78
2023/04/20 10:20:46;;;;;;;13.30;11.90;;;;;;;14.07;70.20;98088.09;106853;1276;25534;-78
2023/04/20 10:23:17;;;;;;;13.00;11.40;;;;;;;14.01;69.56;98087.05;106762;1276;25394;-78
2023/04/20 10:25:57;;;;;;;16.30;11.90;;;;;;;13.97;70.48;98085.77;106832;1271;24765;-78
2023/04/20 10:28:38;;;;;;;15.10;11.80;;;;;;;13.99;70.46;98084.95;107027;1276;22536;-78
2023/04/20 10:31:11;;;;;;;13.80;12.00;;;;;;;14.07;70.18;98082.61;107047;1273;22539;-78
2023/04/20 10:33:54;;;;;;;14.60;10.10;;;;;;;14.12;69.82;98085.06;107155;1266;22601;-78
2023/04/20 10:36:28;;;;;;;15.60;11.40;;;;;;;14.16;70.39;98090.00;107182;1276;23861;-80
2023/04/20 10:38:57;;;;;;;13.90;11.00;;;;;;;14.23;70.39;98084.30;107341;1276;22525;-78
2023/04/20 10:41:26;;;;;;;13.00;10.70;;;;;;;14.28;69.79;98083.02;107952;1276;22771;-78
2023/04/20 10:43:53;;;;;;;13.90;11.20;;;;;;;14.31;69.85;98085.08;107086;1276;25636;-80
2023/04/20 10:46:23;;;;;;;13.40;11.80;;;;;;;14.38;69.02;98082.23;107158;1276;22568;-79
2023/04/20 10:48:52;;;;;;;16.10;11.90;;;;;;;14.40;69.18;98086.10;106915;1276;23810;-78
2023/04/20 10:51:20;;;;;;;12.20;10.80;;;;;;;14.47;68.38;98080.30;106888;1276;22525;-80
2023/04/20 10:53:58;;;;;;;15.30;11.90;;;;;;;14.55;69.31;98079.59;106868;1276;22565;-81
2023/04/20 10:56:26;;;;;;;13.00;11.60;;;;;;;14.66;69.43;98078.22;106872;1276;22542;-79
2023/04/20 10:59:05;;;;;;;19.40;12.10;;;;;;;14.72;68.45;98073.10;106803;1276;25707;-79
2023/04/20 11:01:33;;;;;;;13.80;11.80;;;;;;;14.69;67.98;98073.77;106840;1255;22521;-78
2023/04/20 11:04:03;;;;;;;13.30;11.40;;;;;;;14.69;67.66;98074.09;106820;1276;22521;-77
2023/04/20 11:06:31;;;;;;;14.80;11.30;;;;;;;14.70;67.90;98073.90;106831;1276;25473;-77
2023/04/20 11:08:59;;;;;;;12.60;11.20;;;;;;;14.74;67.85;98074.16;106818;1276;24299;-77
2023/04/20 11:11:27;;;;;;;14.30;12.80;;;;;;;14.85;68.41;98074.45;106553;1276;25684;-78
2023/04/20 11:14:06;;;;;;;17.30;15.20;;;;;;;14.98;68.63;98071.73;106791;1276;22664;-77
2023/04/20 11:16:35;;;;;;;16.60;15.00;;;;;;;14.97;67.20;98069.48;106837;1276;22640;-77
2023/04/20 11:19:22;;;;;;;18.20;14.90;;;;;;;14.76;67.54;98077.61;106777;1276;22630;-77
2023/04/20 11:21:50;;;;;;;21.90;15.00;;;;;;;14.57;67.57;98075.63;106795;1276;22536;-77